createdAt,value
2023-06-20T00:00:52.880Z,95988.53
2023-06-20T00:03:21.773Z,95993.75
2023-06-20T00:05:50.156Z,95993.56
2023-06-20T00:08:20.164Z,95996.34
2023-06-20T00:10:48.763Z,96000.41
2023-06-20T00:13:19.252Z,95998.81
2023-06-20T00:15:48.028Z,95998.53
2023-06-20T00:18:19.060Z,96009.72
2023-06-20T00:20:48.878Z,96006.31
2023-06-20T00:23:18.040Z,95998.06
2023-06-20T00:25:49.055Z,95992.53
2023-06-20T00:28:22.459Z,95991.75
2023-06-20T00:30:51.252Z,95990.28
2023-06-20T00:33:20.885Z,95984.44
2023-06-20T00:35:49.572Z,95981.38
2023-06-20T00:38:18.509Z,95980.72
2023-06-20T00:40:50.866Z,95984.97
2023-06-20T00:43:19.937Z,95976.19
2023-06-20T00:45:48.910Z,95979.44
2023-06-20T00:48:18.602Z,95974.06
2023-06-20T00:50:47.338Z,95976.00
2023-06-20T00:53:16.237Z,95973.59
2023-06-20T00:55:45.021Z,95972.94
2023-06-20T00:58:15.366Z,95974.72
2023-06-20T01:00:44.111Z,95973.25
2023-06-20T01:03:14.540Z,95963.88
2023-06-20T01:05:44.261Z,95967.94
2023-06-20T01:08:17.813Z,95968.28
2023-06-20T01:10:55.792Z,95962.47
2023-06-20T01:13:37.663Z,95967.16
2023-06-20T01:16:12.625Z,95954.72
2023-06-20T01:18:48.810Z,95952.44
2023-06-20T01:21:20.672Z,95954.41
2023-06-20T01:23:56.232Z,95952.59
2023-06-20T01:26:29.545Z,95945.00
2023-06-20T01:29:01.742Z,95946.47
2023-06-20T01:31:34.108Z,95949.53
2023-06-20T01:34:09.098Z,95945.00
2023-06-20T01:36:39.724Z,95949.53
2023-06-20T01:39:12.639Z,95943.88
2023-06-20T01:41:44.387Z,95940.63
2023-06-20T01:44:15.909Z,95934.78
2023-06-20T01:46:46.246Z,95936.44
2023-06-20T01:49:16.825Z,95927.84
2023-06-20T01:51:45.773Z,95928.97
2023-06-20T01:54:16.946Z,95925.72
2023-06-20T01:56:46.788Z,95931.59
2023-06-20T01:59:17.273Z,95928.88
2023-06-20T02:01:48.239Z,95935.84
2023-06-20T02:04:18.189Z,95936.34
2023-06-20T02:06:48.654Z,95934.72
2023-06-20T02:09:19.387Z,95934.88
2023-06-20T02:11:49.045Z,95943.31
2023-06-20T02:14:18.249Z,95950.75
2023-06-20T02:16:47.987Z,95942.97
2023-06-20T02:19:17.096Z,95941.03
2023-06-20T02:21:47.842Z,95945.22
2023-06-20T02:24:21.258Z,95939.06
2023-06-20T02:26:50.806Z,95936.81
2023-06-20T02:29:20.784Z,95942.78
2023-06-20T02:31:50.724Z,95931.63
2023-06-20T02:34:22.898Z,95939.41
2023-06-20T02:36:53.568Z,95932.94
2023-06-20T02:39:24.219Z,95931.47
2023-06-20T02:41:53.558Z,95943.66
2023-06-20T02:44:23.117Z,95939.44
2023-06-20T02:47:00.642Z,95942.34
2023-06-20T02:49:36.017Z,95943.81
2023-06-20T02:52:08.386Z,95943.84
2023-06-20T02:54:46.096Z,95948.06
2023-06-20T02:57:17.952Z,95956.31
2023-06-20T02:59:51.654Z,95942.38
2023-06-20T03:02:21.508Z,95947.56
2023-06-20T03:04:51.493Z,95950.50
2023-06-20T03:07:21.462Z,95944.66
2023-06-20T03:09:53.059Z,95946.94
2023-06-20T03:12:21.765Z,95946.13
2023-06-20T03:14:50.871Z,95953.09
2023-06-20T03:17:19.514Z,95956.34
2023-06-20T03:19:49.113Z,95954.91
2023-06-20T03:22:18.148Z,95960.22
2023-06-20T03:24:49.184Z,95959.44
2023-06-20T03:27:19.445Z,95955.03
2023-06-20T03:29:48.105Z,95958.09
2023-06-20T03:32:16.867Z,95963.28
2023-06-20T03:34:46.404Z,95955.50
2023-06-20T03:37:15.249Z,95962.50
2023-06-20T03:39:43.850Z,95972.06
2023-06-20T03:42:12.546Z,95962.97
2023-06-20T03:44:42.670Z,95964.47
2023-06-20T03:47:15.925Z,95957.81
2023-06-20T03:49:45.378Z,95960.25
2023-06-20T03:52:14.530Z,95962.50
2023-06-20T03:54:44.271Z,95955.03
2023-06-20T03:57:12.729Z,95960.88
2023-06-20T03:59:43.499Z,95966.22
2023-06-20T04:02:12.316Z,95969.31
2023-06-20T04:04:41.210Z,95965.25
2023-06-20T04:07:11.590Z,95972.84
2023-06-20T04:09:40.311Z,95978.34
2023-06-20T04:12:11.937Z,95976.41
2023-06-20T04:14:42.594Z,95973.50
2023-06-20T04:17:11.386Z,95973.19
2023-06-20T04:19:40.311Z,95973.03
2023-06-20T04:22:10.848Z,95968.94
2023-06-20T04:24:39.857Z,95970.41
2023-06-20T04:27:08.969Z,95972.16
2023-06-20T04:29:38.136Z,95972.34
2023-06-20T04:32:08.658Z,95980.59
2023-06-20T04:34:37.389Z,95977.66
2023-06-20T04:37:06.625Z,95989.00
2023-06-20T04:39:35.520Z,95987.50
2023-06-20T04:42:04.672Z,95986.03
2023-06-20T04:44:35.114Z,95985.38
2023-06-20T04:47:04.050Z,95983.56
2023-06-20T04:49:34.163Z,95983.69
2023-06-20T04:52:03.048Z,95982.03
2023-06-20T04:54:32.902Z,95988.03
2023-06-20T04:57:03.591Z,95990.09
2023-06-20T04:59:32.012Z,95991.50
2023-06-20T05:02:00.971Z,95996.00
2023-06-20T05:04:29.917Z,95999.53
2023-06-20T05:07:02.098Z,95993.50
2023-06-20T05:09:31.390Z,95995.69
2023-06-20T05:12:04.519Z,95996.31
2023-06-20T05:14:34.469Z,95990.34
2023-06-20T05:17:03.961Z,95990.75
2023-06-20T05:19:34.372Z,95997.78
2023-06-20T05:22:04.512Z,96002.06
2023-06-20T05:24:33.313Z,96006.47
2023-06-20T05:27:04.143Z,96007.94
2023-06-20T05:29:33.037Z,96009.19
2023-06-20T05:32:04.060Z,96006.91
2023-06-20T05:34:33.389Z,96008.16
2023-06-20T05:37:03.466Z,96007.59
2023-06-20T05:39:32.477Z,96007.78
2023-06-20T05:42:02.114Z,96011.97
2023-06-20T05:44:30.726Z,96010.34
2023-06-20T05:46:59.379Z,96016.06
2023-06-20T05:49:28.600Z,96015.94
2023-06-20T05:51:58.676Z,96012.19
2023-06-20T05:54:28.748Z,96013.25
2023-06-20T05:56:57.776Z,96019.78
2023-06-20T05:59:28.226Z,96023.44
2023-06-20T06:01:58.860Z,96022.47
2023-06-20T06:04:28.287Z,96025.13
2023-06-20T06:06:56.900Z,96027.81
2023-06-20T06:09:25.748Z,96030.47
2023-06-20T06:11:55.603Z,96023.88
2023-06-20T06:14:24.175Z,96029.25
2023-06-20T06:16:52.920Z,96037.16
2023-06-20T06:19:21.996Z,96033.00
2023-06-20T06:21:50.656Z,96027.47
2023-06-20T06:24:20.028Z,96031.94
2023-06-20T06:26:49.011Z,96023.16
2023-06-20T06:29:19.399Z,96018.53
2023-06-20T06:31:48.451Z,96031.00
2023-06-20T06:34:18.530Z,96026.84
2023-06-20T06:36:50.963Z,96020.50
2023-06-20T06:39:20.330Z,96028.22
2023-06-20T06:41:50.554Z,96022.22
2023-06-20T06:44:20.818Z,96014.63
2023-06-20T06:46:49.890Z,96020.88
2023-06-20T06:49:18.361Z,96017.28
2023-06-20T06:51:49.161Z,96023.53
2023-06-20T06:54:19.516Z,96029.63
2023-06-20T06:56:48.696Z,96020.75
2023-06-20T06:59:17.456Z,96017.16
2023-06-20T07:01:48.268Z,96014.94
2023-06-20T07:04:17.099Z,96016.94
2023-06-20T07:06:46.133Z,96018.53
2023-06-20T07:09:15.341Z,96022.78
2023-06-20T07:11:44.386Z,96015.69
2023-06-20T07:14:13.610Z,96016.50
2023-06-20T07:16:55.679Z,96021.50
2023-06-20T07:19:33.029Z,96022.47
2023-06-20T07:22:04.047Z,96023.97
2023-06-20T07:24:32.974Z,96017.91
2023-06-20T07:27:01.596Z,96026.06
2023-06-20T07:29:30.711Z,96021.91
2023-06-20T07:31:59.718Z,96020.59
2023-06-20T07:34:28.196Z,96019.09
2023-06-20T07:36:58.840Z,96016.56
2023-06-20T07:39:27.860Z,96014.25
2023-06-20T07:41:56.622Z,96018.53
2023-06-20T07:44:25.429Z,96005.63
2023-06-20T07:46:54.090Z,96018.19
2023-06-20T07:49:23.115Z,96019.47
2023-06-20T07:51:51.914Z,96016.91
2023-06-20T07:54:22.541Z,96024.44
2023-06-20T07:56:51.151Z,96032.38
2023-06-20T07:59:20.920Z,96034.84
2023-06-20T08:01:50.011Z,96035.09
2023-06-20T08:04:18.816Z,96042.00
2023-06-20T08:06:47.507Z,96046.72
2023-06-20T08:09:16.398Z,96038.50
2023-06-20T08:11:48.783Z,96042.53
2023-06-20T08:14:19.331Z,96035.69
2023-06-20T08:16:48.261Z,96031.28
2023-06-20T08:19:16.722Z,96033.16
2023-06-20T08:21:45.671Z,96031.78
2023-06-20T08:24:14.603Z,96035.91
2023-06-20T08:26:43.173Z,96031.56
2023-06-20T08:29:13.433Z,96036.06
2023-06-20T08:31:42.321Z,96034.47
2023-06-20T08:34:11.504Z,96036.50
2023-06-20T08:36:40.690Z,96039.75
2023-06-20T08:39:09.341Z,96026.22
2023-06-20T08:41:38.344Z,96032.50
2023-06-20T08:44:07.481Z,96037.91
2023-06-20T08:46:37.683Z,96040.50
2023-06-20T08:49:08.208Z,96032.59
2023-06-20T08:51:40.367Z,96031.59
2023-06-20T08:54:15.155Z,96034.47
2023-06-20T08:56:44.067Z,96038.25
2023-06-20T08:59:12.803Z,96041.09
2023-06-20T09:01:43.495Z,96029.97
2023-06-20T09:04:13.202Z,96042.69
2023-06-20T09:06:42.547Z,96042.47
2023-06-20T09:09:18.321Z,96045.09
2023-06-20T09:11:53.573Z,96053.22
2023-06-20T09:14:22.289Z,96055.69
2023-06-20T09:16:52.759Z,96062.81
2023-06-20T09:19:21.618Z,96053.97
2023-06-20T09:21:54.712Z,96056.19
2023-06-20T09:24:33.500Z,96052.84
2023-06-20T09:27:05.028Z,96057.72
2023-06-20T09:29:33.950Z,96055.03
2023-06-20T09:32:04.664Z,96052.50
2023-06-20T09:34:36.533Z,96050.88
2023-06-20T09:37:12.104Z,96042.75
2023-06-20T09:39:41.170Z,96054.34
2023-06-20T09:42:13.741Z,96063.53
2023-06-20T09:44:42.882Z,96065.06
2023-06-20T09:47:13.394Z,96063.22
2023-06-20T09:49:42.914Z,96061.81
2023-06-20T09:52:16.402Z,96061.00
2023-06-20T09:54:47.073Z,96056.88
2023-06-20T09:57:23.495Z,96069.38
2023-06-20T09:59:53.377Z,96059.53
2023-06-20T10:02:25.618Z,96051.97
2023-06-20T10:04:54.922Z,96055.38
2023-06-20T10:07:24.262Z,96052.22
2023-06-20T10:09:56.657Z,96056.31
2023-06-20T10:12:26.115Z,96057.75
2023-06-20T10:14:55.065Z,96053.81
2023-06-20T10:17:34.124Z,96056.47
2023-06-20T10:20:06.180Z,96052.78
2023-06-20T10:22:36.712Z,96042.97
2023-06-20T10:25:13.881Z,96046.34
2023-06-20T10:27:43.825Z,96040.91
2023-06-20T10:30:14.438Z,96048.59
2023-06-20T10:33:10.355Z,96041.78
2023-06-20T10:35:50.158Z,96045.97
2023-06-20T10:38:18.911Z,96040.38
2023-06-20T10:40:48.120Z,96039.63
2023-06-20T10:43:20.323Z,96041.13
2023-06-20T10:45:58.729Z,96045.03
2023-06-20T10:48:29.299Z,96047.34
2023-06-20T10:51:01.874Z,96046.97
2023-06-20T10:53:46.723Z,96048.72
2023-06-20T10:56:25.805Z,96037.56
2023-06-20T10:58:54.916Z,96039.31
2023-06-20T11:01:29.228Z,96028.63
2023-06-20T11:04:00.139Z,96030.06
2023-06-20T11:06:32.221Z,96029.19
2023-06-20T11:09:00.836Z,96028.94
2023-06-20T11:11:34.215Z,96022.97
2023-06-20T11:14:12.493Z,96021.03
2023-06-20T11:16:42.315Z,96017.16
2023-06-20T11:19:26.395Z,96018.69
2023-06-20T11:22:02.913Z,96017.47
2023-06-20T11:24:32.966Z,96014.34
2023-06-20T11:27:14.380Z,96015.06
2023-06-20T11:29:43.812Z,96006.97
2023-06-20T11:32:13.673Z,96006.66
2023-06-20T11:34:57.873Z,95995.91
2023-06-20T11:37:26.845Z,95985.75
2023-06-20T11:39:56.058Z,95986.94
2023-06-20T11:42:25.233Z,95988.69
2023-06-20T11:44:54.239Z,95985.88
2023-06-20T11:47:23.365Z,95984.16
2023-06-20T11:49:58.445Z,95980.06
2023-06-20T11:52:33.848Z,95978.59
2023-06-20T11:55:05.180Z,95978.88
2023-06-20T11:57:33.898Z,95981.06
2023-06-20T12:00:13.369Z,95978.66
2023-06-20T12:02:43.694Z,95977.00
2023-06-20T12:05:13.121Z,95976.94
2023-06-20T12:07:54.644Z,95970.22
2023-06-20T12:10:26.021Z,95967.84
2023-06-20T12:12:54.797Z,95973.16
2023-06-20T12:15:23.952Z,95965.81
2023-06-20T12:17:52.850Z,95975.31
2023-06-20T12:20:33.278Z,95965.31
2023-06-20T12:23:05.289Z,95961.97
2023-06-20T12:25:34.504Z,95968.63
2023-06-20T12:28:03.952Z,95959.63
2023-06-20T12:30:33.449Z,95964.16
2023-06-20T12:33:04.031Z,95962.00
2023-06-20T12:35:33.269Z,95953.47
2023-06-20T12:38:02.818Z,95959.31
2023-06-20T12:40:33.369Z,95953.50
2023-06-20T12:43:02.812Z,95946.00
2023-06-20T12:45:32.014Z,95954.69
2023-06-20T12:48:00.663Z,95947.53
2023-06-20T12:50:29.569Z,95949.00
2023-06-20T12:52:58.414Z,95950.09
2023-06-20T12:55:27.214Z,95943.75
2023-06-20T12:57:58.793Z,95941.34
2023-06-20T13:00:29.525Z,95934.69
2023-06-20T13:02:58.450Z,95938.38
2023-06-20T13:05:27.625Z,95939.75
2023-06-20T13:07:56.553Z,95939.75
2023-06-20T13:10:26.095Z,95938.63
2023-06-20T13:12:59.559Z,95939.59
2023-06-20T13:15:30.918Z,95944.63
2023-06-20T13:17:59.755Z,95942.88
2023-06-20T13:20:29.012Z,95938.38
2023-06-20T13:22:58.248Z,95933.13
2023-06-20T13:25:27.235Z,95942.13
2023-06-20T13:27:57.681Z,95933.09
2023-06-20T13:30:27.326Z,95944.50
2023-06-20T13:32:56.930Z,95938.38
2023-06-20T13:35:25.968Z,95946.03
2023-06-20T13:37:54.990Z,95944.63
2023-06-20T13:40:31.777Z,95940.28
2023-06-20T13:43:06.485Z,95942.88
2023-06-20T13:45:36.265Z,95941.63
2023-06-20T13:48:05.796Z,95945.06
2023-06-20T13:50:38.247Z,95940.47
2023-06-20T13:53:07.730Z,95943.97
2023-06-20T13:55:36.938Z,95933.13
2023-06-20T13:58:07.186Z,95936.56
2023-06-20T14:00:40.956Z,95927.56
2023-06-20T14:03:09.942Z,95920.91
2023-06-20T14:05:38.998Z,95933.13
2023-06-20T14:08:08.170Z,95931.00
2023-06-20T14:10:37.244Z,95916.91
2023-06-20T14:13:07.513Z,95925.69
2023-06-20T14:15:38.505Z,95918.22
2023-06-20T14:18:07.069Z,95919.50
2023-06-20T14:20:36.282Z,95916.03
2023-06-20T14:23:05.271Z,95911.25
2023-06-20T14:25:34.496Z,95903.03
2023-06-20T14:28:03.434Z,95907.81
2023-06-20T14:30:37.637Z,95909.69
2023-06-20T14:33:06.998Z,95904.38
2023-06-20T14:35:35.906Z,95909.69
2023-06-20T14:38:04.304Z,95903.03
2023-06-20T14:40:33.889Z,95909.81
2023-06-20T14:43:03.403Z,95902.66
2023-06-20T14:45:38.026Z,95907.97
2023-06-20T14:48:07.348Z,95905.84
2023-06-20T14:50:47.702Z,95902.13
2023-06-20T14:53:17.499Z,95896.84
2023-06-20T14:55:46.169Z,95895.00
2023-06-20T14:58:15.040Z,95896.53
2023-06-20T15:00:46.104Z,95895.25
2023-06-20T15:03:15.016Z,95892.50
2023-06-20T15:05:44.016Z,95893.06
2023-06-20T15:08:15.222Z,95886.22
2023-06-20T15:10:44.266Z,95895.25
2023-06-20T15:13:12.926Z,95890.22
2023-06-20T15:15:41.690Z,95895.22
2023-06-20T15:18:16.593Z,95888.84
2023-06-20T15:20:45.426Z,95885.66
2023-06-20T15:23:14.104Z,95889.63
2023-06-20T15:25:42.971Z,95885.06
2023-06-20T15:28:11.633Z,95879.66
2023-06-20T15:30:44.606Z,95883.59
2023-06-20T15:33:15.101Z,95881.19
2023-06-20T15:35:46.119Z,95882.28
2023-06-20T15:38:15.040Z,95878.03
2023-06-20T15:40:45.372Z,95877.63
2023-06-20T15:43:14.691Z,95876.06
2023-06-20T15:45:44.911Z,95873.41
2023-06-20T15:48:15.405Z,95874.16
2023-06-20T15:50:45.056Z,95866.72
2023-06-20T15:53:14.159Z,95871.78
2023-06-20T15:55:43.141Z,95867.00
2023-06-20T15:58:12.528Z,95871.28
2023-06-20T16:00:42.668Z,95873.13
2023-06-20T16:03:11.615Z,95865.31
2023-06-20T16:05:42.288Z,95863.41
2023-06-20T16:08:11.317Z,95867.56
2023-06-20T16:10:40.374Z,95861.66
2023-06-20T16:13:09.131Z,95862.22
2023-06-20T16:15:42.832Z,95867.16
2023-06-20T16:18:11.857Z,95863.09
2023-06-20T16:20:42.069Z,95859.63
2023-06-20T16:23:11.411Z,95868.03
2023-06-20T16:25:42.660Z,95866.66
2023-06-20T16:28:13.699Z,95870.38
2023-06-20T16:30:44.913Z,95871.09
2023-06-20T16:33:14.107Z,95872.66
2023-06-20T16:35:44.009Z,95865.78
2023-06-20T16:38:13.269Z,95866.19
2023-06-20T16:40:41.932Z,95867.25
2023-06-20T16:43:11.145Z,95866.25
2023-06-20T16:45:41.263Z,95865.78
2023-06-20T16:48:10.028Z,95863.41
2023-06-20T16:50:38.764Z,95861.59
2023-06-20T16:53:10.331Z,95854.28
2023-06-20T16:55:40.054Z,95859.25
2023-06-20T16:58:09.933Z,95864.09
2023-06-20T17:00:40.513Z,95866.75
2023-06-20T17:03:10.133Z,95864.59
2023-06-20T17:05:38.935Z,95859.56
2023-06-20T17:08:09.928Z,95860.66
2023-06-20T17:10:39.122Z,95860.59
2023-06-20T17:13:07.977Z,95860.22
2023-06-20T17:15:38.622Z,95859.66
2023-06-20T17:18:07.901Z,95859.72
2023-06-20T17:20:37.177Z,95860.59
2023-06-20T17:23:06.220Z,95864.25
2023-06-20T17:25:37.071Z,95858.94
2023-06-20T17:28:05.997Z,95862.44
2023-06-20T17:30:35.031Z,95854.56
2023-06-20T17:33:04.338Z,95855.47
2023-06-20T17:35:33.350Z,95850.53
2023-06-20T17:38:02.367Z,95851.31
2023-06-20T17:40:31.450Z,95847.63
2023-06-20T17:43:01.644Z,95839.06
2023-06-20T17:45:30.638Z,95847.63
2023-06-20T17:48:00.653Z,95841.34
2023-06-20T17:50:29.630Z,95843.97
2023-06-20T17:53:00.463Z,95846.50
2023-06-20T17:55:29.104Z,95847.31
2023-06-20T17:58:01.773Z,95842.91
2023-06-20T18:00:34.442Z,95840.97
2023-06-20T18:03:04.333Z,95846.94
2023-06-20T18:05:33.816Z,95837.63
2023-06-20T18:08:02.558Z,95838.91
2023-06-20T18:10:32.409Z,95841.88
2023-06-20T18:13:01.398Z,95835.56
2023-06-20T18:15:31.943Z,95834.84
2023-06-20T18:18:01.255Z,95839.41
2023-06-20T18:20:30.608Z,95838.00
2023-06-20T18:22:59.294Z,95835.34
2023-06-20T18:25:28.419Z,95835.09
2023-06-20T18:27:57.091Z,95832.19
2023-06-20T18:30:26.167Z,95828.28
2023-06-20T18:32:56.767Z,95827.25
2023-06-20T18:35:25.141Z,95835.41
2023-06-20T18:37:54.032Z,95830.69
2023-06-20T18:40:23.357Z,95836.13
2023-06-20T18:42:53.032Z,95833.00
2023-06-20T18:45:23.006Z,95834.97
2023-06-20T18:47:52.461Z,95832.84
2023-06-20T18:50:23.349Z,95824.09
2023-06-20T18:52:52.410Z,95832.84
2023-06-20T18:55:21.114Z,95828.22
2023-06-20T18:57:50.259Z,95838.50
2023-06-20T19:00:19.750Z,95841.56
2023-06-20T19:02:49.495Z,95846.72
2023-06-20T19:05:18.767Z,95842.63
2023-06-20T19:07:51.811Z,95853.22
2023-06-20T19:10:22.286Z,95853.53
2023-06-20T19:12:51.158Z,95854.19
2023-06-20T19:15:20.229Z,95851.63
2023-06-20T19:17:52.135Z,95852.28
2023-06-20T19:20:21.826Z,95867.19
2023-06-20T19:22:53.534Z,95858.09
2023-06-20T19:25:22.831Z,95856.88
2023-06-20T19:27:51.363Z,95865.59
2023-06-20T19:30:21.267Z,95867.63
2023-06-20T19:32:51.999Z,95869.69
2023-06-20T19:35:20.971Z,95864.03
2023-06-20T19:37:49.949Z,95859.81
2023-06-20T19:40:21.049Z,95863.22
2023-06-20T19:42:51.100Z,95862.81
2023-06-20T19:45:23.533Z,95867.25
2023-06-20T19:47:56.900Z,95862.22
2023-06-20T19:50:25.534Z,95869.47
2023-06-20T19:52:54.627Z,95866.50
2023-06-20T19:55:25.622Z,95870.91
2023-06-20T19:57:54.792Z,95870.91
2023-06-20T20:05:21.946Z,95867.50
2023-06-20T20:07:50.820Z,95871.31
2023-06-20T20:10:19.610Z,95873.38
2023-06-20T20:12:50.788Z,95866.94
2023-06-20T20:15:20.297Z,95872.00
2023-06-20T20:17:49.273Z,95866.97
2023-06-20T20:20:18.505Z,95874.44
2023-06-20T20:22:47.499Z,95871.63
2023-06-20T20:25:16.725Z,95867.19
2023-06-20T20:27:45.777Z,95870.84
2023-06-20T20:30:17.445Z,95867.81
2023-06-20T20:32:47.305Z,95870.44
2023-06-20T20:35:17.184Z,95862.19
2023-06-20T20:37:46.111Z,95855.72
2023-06-20T20:40:14.998Z,95858.13
2023-06-20T20:42:44.290Z,95871.44
2023-06-20T20:45:13.369Z,95876.66
2023-06-20T20:47:44.067Z,95876.88
2023-06-20T20:50:13.233Z,95887.13
2023-06-20T20:52:42.220Z,95883.91
2023-06-20T20:55:13.642Z,95886.72
2023-06-20T20:57:44.689Z,95890.56
2023-06-20T21:00:14.801Z,95889.13
2023-06-20T21:02:44.979Z,95898.81
2023-06-20T21:05:14.071Z,95896.78
2023-06-20T21:07:43.130Z,95895.56
2023-06-20T21:10:12.408Z,95894.34
2023-06-20T21:12:41.360Z,95893.94
2023-06-20T21:15:13.187Z,95886.72
2023-06-20T21:17:42.612Z,95886.31
2023-06-20T21:20:13.961Z,95883.91
2023-06-20T21:22:43.556Z,95870.84
2023-06-20T21:25:12.559Z,95871.81
2023-06-20T21:27:41.813Z,95873.03
2023-06-20T21:30:12.021Z,95870.34
2023-06-20T21:32:41.331Z,95868.97
2023-06-20T21:35:10.972Z,95869.31
2023-06-20T21:37:41.342Z,95866.06
2023-06-20T21:40:11.401Z,95866.25
2023-06-20T21:42:40.496Z,95876.28
2023-06-20T21:45:13.472Z,95869.44
2023-06-20T21:47:42.661Z,95869.41
2023-06-20T21:50:11.974Z,95876.84
2023-06-20T21:52:42.724Z,95876.41
2023-06-20T21:55:11.779Z,95874.63
2023-06-20T21:57:41.076Z,95880.47
2023-06-20T22:00:11.266Z,95874.63
2023-06-20T22:02:40.303Z,95875.25
2023-06-20T22:05:09.308Z,95877.66
2023-06-20T22:07:38.124Z,95879.25
2023-06-20T22:10:09.854Z,95885.28
2023-06-20T22:12:38.770Z,95883.88
2023-06-20T22:15:08.668Z,95886.09
2023-06-20T22:17:37.800Z,95894.88
2023-06-20T22:20:10.717Z,95900.94
2023-06-20T22:22:39.371Z,95896.53
2023-06-20T22:25:11.106Z,95894.53
2023-06-20T22:27:40.459Z,95890.09
2023-06-20T22:30:12.330Z,95893.31
2023-06-20T22:32:41.187Z,95893.50
2023-06-20T22:35:10.577Z,95895.50
2023-06-20T22:37:39.654Z,95889.88
2023-06-20T22:40:11.937Z,95888.66
2023-06-20T22:42:41.124Z,95877.59
2023-06-20T22:45:10.106Z,95877.13
2023-06-20T22:47:38.966Z,95878.31
2023-06-20T22:50:08.611Z,95875.28
2023-06-20T22:52:37.595Z,95860.84
2023-06-20T22:55:06.749Z,95855.13
2023-06-20T22:57:37.640Z,95864.81
2023-06-20T23:00:09.619Z,95867.00
2023-06-20T23:02:38.848Z,95868.81
2023-06-20T23:05:09.301Z,95874.84
2023-06-20T23:07:38.222Z,95869.00
2023-06-20T23:10:07.575Z,95865.34
2023-06-20T23:12:38.395Z,95862.94
2023-06-20T23:15:08.229Z,95866.34
2023-06-20T23:17:41.952Z,95870.56
2023-06-20T23:20:14.539Z,95866.34
2023-06-20T23:22:43.893Z,95867.16
2023-06-20T23:25:13.608Z,95864.75
2023-06-20T23:27:46.523Z,95869.34
2023-06-20T23:30:15.707Z,95869.75
2023-06-20T23:32:45.458Z,95871.28
2023-06-20T23:35:14.124Z,95856.72
2023-06-20T23:37:42.646Z,95857.28
2023-06-20T23:40:13.894Z,95862.69
2023-06-20T23:42:45.873Z,95863.06
2023-06-20T23:45:15.979Z,95861.06
2023-06-20T23:47:44.784Z,95872.84
2023-06-20T23:50:13.772Z,95872.84
2023-06-20T23:52:42.542Z,95867.88
2023-06-20T23:55:11.884Z,95867.09
2023-06-20T23:57:40.813Z,95861.94
